createdAt,value
2023-05-08T00:01:17.489Z,102113.59
2023-05-08T00:03:44.151Z,102118.16
2023-05-08T00:06:10.796Z,102126.59
2023-05-08T00:08:37.297Z,102123.25
2023-05-08T00:11:03.804Z,102125.25
2023-05-08T00:13:30.329Z,102117.66
2023-05-08T00:15:56.819Z,102123.41
2023-05-08T00:18:23.468Z,102118.91
2023-05-08T00:20:49.979Z,102110.56
2023-05-08T00:23:16.438Z,102103.72
2023-05-08T00:25:42.937Z,102104.88
2023-05-08T00:28:09.377Z,102101.13
2023-05-08T00:30:35.887Z,102099.31
2023-05-08T00:33:02.401Z,102100.91
2023-05-08T00:35:28.851Z,102102.81
2023-05-08T00:37:55.357Z,102102.47
2023-05-08T00:40:21.838Z,102107.06
2023-05-08T00:42:48.471Z,102110.91
2023-05-08T00:45:14.960Z,102107.56
2023-05-08T00:47:42.130Z,102100.78
2023-05-08T00:50:10.215Z,102105.03
2023-05-08T00:52:37.538Z,102107.72
2023-05-08T00:55:05.152Z,102105.03
2023-05-08T00:57:35.693Z,102103.94
2023-05-08T01:00:04.564Z,102102.50
2023-05-08T01:02:32.009Z,102105.22
2023-05-08T01:04:58.960Z,102110.63
2023-05-08T01:07:25.721Z,102102.38
2023-05-08T01:09:52.274Z,102111.22
2023-05-08T01:13:05.021Z,102112.19
2023-05-08T01:15:42.814Z,102106.50
2023-05-08T01:18:22.909Z,102107.34
2023-05-08T01:21:01.100Z,102105.81
2023-05-08T01:23:45.789Z,102101.31
2023-05-08T01:26:30.858Z,102104.38
2023-05-08T01:29:34.375Z,102101.38
2023-05-08T01:32:12.378Z,102096.53
2023-05-08T01:34:49.884Z,102104.59
2023-05-08T01:37:21.817Z,102113.56
2023-05-08T01:40:00.321Z,102110.56
2023-05-08T01:42:53.581Z,102115.53
2023-05-08T01:45:27.057Z,102114.03
2023-05-08T01:48:08.126Z,102108.38
2023-05-08T01:50:40.651Z,102104.25
2023-05-08T01:53:20.244Z,102105.00
2023-05-08T01:55:50.001Z,102108.09
2023-05-08T01:58:17.904Z,102110.41
2023-05-08T02:00:45.677Z,102121.06
2023-05-08T02:03:16.498Z,102121.13
2023-05-08T02:05:45.022Z,102115.03
2023-05-08T02:08:14.063Z,102116.97
2023-05-08T02:10:42.222Z,102118.13
2023-05-08T02:13:11.241Z,102118.13
2023-05-08T02:15:39.832Z,102119.69
2023-05-08T02:18:08.522Z,102122.75
2023-05-08T02:20:36.350Z,102121.25
2023-05-08T02:23:03.542Z,102124.31
2023-05-08T02:25:31.151Z,102120.16
2023-05-08T02:27:58.312Z,102121.31
2023-05-08T02:30:26.190Z,102121.31
2023-05-08T02:32:54.592Z,102122.47
2023-05-08T02:35:24.750Z,102129.78
2023-05-08T02:37:57.137Z,102132.44
2023-05-08T02:40:27.638Z,102126.34
2023-05-08T02:42:55.593Z,102132.53
2023-05-08T02:45:25.692Z,102134.09
2023-05-08T02:48:18.126Z,102133.69
2023-05-08T02:50:53.646Z,102135.25
2023-05-08T02:53:31.600Z,102133.38
2023-05-08T02:56:07.983Z,102132.28
2023-05-08T02:58:45.851Z,102126.97
2023-05-08T03:01:24.412Z,102124.31
2023-05-08T03:04:01.540Z,102122.44
2023-05-08T03:06:37.674Z,102123.94
2023-05-08T03:09:06.666Z,102120.88
2023-05-08T03:11:44.872Z,102123.88
2023-05-08T03:14:14.877Z,102120.47
2023-05-08T03:16:44.665Z,102120.47
2023-05-08T03:19:23.061Z,102117.81
2023-05-08T03:21:52.033Z,102110.63
2023-05-08T03:24:20.637Z,102117.94
2023-05-08T03:26:47.697Z,102114.56
2023-05-08T03:29:15.491Z,102117.69
2023-05-08T03:31:43.908Z,102112.03
2023-05-08T03:34:13.551Z,102109.81
2023-05-08T03:36:40.927Z,102111.44
2023-05-08T03:39:07.868Z,102113.28
2023-05-08T03:41:34.593Z,102112.53
2023-05-08T03:44:03.279Z,102106.44
2023-05-08T03:46:31.965Z,102109.88
2023-05-08T03:49:02.207Z,102102.69
2023-05-08T03:51:29.244Z,102101.97
2023-05-08T03:53:55.729Z,102105.78
2023-05-08T03:56:24.696Z,102106.19
2023-05-08T03:59:12.481Z,102113.06
2023-05-08T04:01:44.268Z,102107.75
2023-05-08T04:04:13.590Z,102102.44
2023-05-08T04:07:08.350Z,102101.66
2023-05-08T04:09:55.582Z,102105.88
2023-05-08T04:12:38.281Z,102116.59
2023-05-08T04:15:09.971Z,102115.84
2023-05-08T04:17:47.270Z,102121.63
2023-05-08T04:20:19.445Z,102118.97
2023-05-08T04:22:50.180Z,102119.38
2023-05-08T04:25:18.974Z,102118.63
2023-05-08T04:27:47.831Z,102122.41
2023-05-08T04:30:14.982Z,102118.56
2023-05-08T04:32:44.153Z,102124.56
2023-05-08T04:35:13.575Z,102127.88
2023-05-08T04:37:43.331Z,102126.66
2023-05-08T04:40:10.737Z,102125.44
2023-05-08T04:42:39.489Z,102118.97
2023-05-08T04:45:06.827Z,102124.94
2023-05-08T04:47:33.505Z,102122.91
2023-05-08T04:50:02.756Z,102129.22
2023-05-08T04:52:31.319Z,102130.25
2023-05-08T04:54:57.875Z,102130.16
2023-05-08T04:57:24.429Z,102133.22
2023-05-08T04:59:51.341Z,102138.09
2023-05-08T05:02:18.177Z,102141.31
2023-05-08T05:04:46.119Z,102144.28
2023-05-08T05:07:13.363Z,102144.69
2023-05-08T05:09:40.007Z,102150.41
2023-05-08T05:12:07.565Z,102152.84
2023-05-08T05:14:35.317Z,102167.44
2023-05-08T05:17:02.334Z,102167.50
2023-05-08T05:19:29.452Z,102164.31
2023-05-08T05:21:56.172Z,102163.91
2023-05-08T05:24:22.683Z,102167.25
2023-05-08T05:26:49.326Z,102169.72
2023-05-08T05:29:15.885Z,102170.66
2023-05-08T05:31:42.711Z,102171.31
2023-05-08T05:34:09.468Z,102165.50
2023-05-08T05:36:36.407Z,102166.47
2023-05-08T05:39:03.370Z,102164.97
2023-05-08T05:41:30.715Z,102170.94
2023-05-08T05:43:57.471Z,102168.69
2023-05-08T05:46:32.189Z,102168.69
2023-05-08T05:49:01.158Z,102165.38
2023-05-08T05:51:28.585Z,102170.53
2023-05-08T05:53:55.379Z,102170.66
2023-05-08T05:56:23.403Z,102174.63
2023-05-08T05:58:50.124Z,102180.06
2023-05-08T06:01:17.009Z,102180.91
2023-05-08T06:03:44.136Z,102182.91
2023-05-08T06:06:11.118Z,102178.91
2023-05-08T06:08:37.550Z,102178.34
2023-05-08T06:11:04.093Z,102187.84
2023-05-08T06:13:31.438Z,102183.34
2023-05-08T06:15:58.933Z,102182.31
2023-05-08T06:18:25.441Z,102184.16
2023-05-08T06:20:57.653Z,102179.06
2023-05-08T06:23:24.532Z,102181.06
2023-05-08T06:25:51.137Z,102185.81
2023-05-08T06:28:17.911Z,102178.06
2023-05-08T06:30:44.432Z,102197.41
2023-05-08T06:33:11.222Z,102185.81
2023-05-08T06:35:37.763Z,102185.69
2023-05-08T06:38:04.353Z,102190.50
2023-05-08T06:40:30.834Z,102190.50
2023-05-08T06:42:57.399Z,102192.66
2023-05-08T06:45:23.854Z,102189.09
2023-05-08T06:47:50.410Z,102190.78
2023-05-08T06:50:16.938Z,102192.91
2023-05-08T06:52:43.426Z,102192.94
2023-05-08T06:55:09.891Z,102194.03
2023-05-08T06:57:36.372Z,102187.94
2023-05-08T07:00:03.040Z,102198.41
2023-05-08T07:02:29.599Z,102199.75
2023-05-08T07:04:56.459Z,102203.06
2023-05-08T07:07:23.189Z,102196.47
2023-05-08T07:09:49.685Z,102204.41
2023-05-08T07:12:16.740Z,102190.19
2023-05-08T07:14:43.609Z,102196.94
2023-05-08T07:17:10.184Z,102197.38
2023-05-08T07:19:37.421Z,102203.50
2023-05-08T07:22:05.014Z,102200.81
2023-05-08T07:24:32.099Z,102198.84
2023-05-08T07:26:59.732Z,102201.38
2023-05-08T07:29:26.989Z,102190.31
2023-05-08T07:31:53.625Z,102196.63
2023-05-08T07:34:20.157Z,102192.13
2023-05-08T07:36:46.584Z,102190.34
2023-05-08T07:39:13.083Z,102187.50
2023-05-08T07:41:40.957Z,102191.09
2023-05-08T07:44:07.897Z,102192.72
2023-05-08T07:46:34.493Z,102187.22
2023-05-08T07:49:01.096Z,102188.38
2023-05-08T07:51:29.876Z,102191.69
2023-05-08T07:53:56.429Z,102195.59
2023-05-08T07:56:23.086Z,102180.47
2023-05-08T07:58:49.904Z,102184.81
2023-05-08T08:01:18.111Z,102196.78
2023-05-08T08:03:45.610Z,102196.19
2023-05-08T08:06:12.270Z,102193.78
2023-05-08T08:08:39.310Z,102188.06
2023-05-08T08:11:06.629Z,102195.84
2023-05-08T08:13:33.303Z,102196.91
2023-05-08T08:16:00.928Z,102197.19
2023-05-08T08:18:27.515Z,102204.25
2023-05-08T08:20:54.058Z,102203.34
2023-05-08T08:23:20.484Z,102204.09
2023-05-08T08:25:47.015Z,102196.78
2023-05-08T08:28:13.494Z,102196.63
2023-05-08T08:30:39.981Z,102196.03
2023-05-08T08:33:07.263Z,102190.66
2023-05-08T08:35:33.754Z,102189.16
2023-05-08T08:38:00.268Z,102187.81
2023-05-08T08:40:27.052Z,102185.06
2023-05-08T08:42:54.761Z,102180.88
2023-05-08T08:45:21.312Z,102182.47
2023-05-08T08:47:48.440Z,102177.06
2023-05-08T08:50:15.891Z,102182.63
2023-05-08T08:53:09.860Z,102175.88
2023-05-08T08:55:40.621Z,102182.53
2023-05-08T08:58:32.351Z,102186.16
2023-05-08T09:01:00.204Z,102187.06
2023-05-08T09:03:27.477Z,102183.53
2023-05-08T09:05:54.621Z,102186.91
2023-05-08T09:08:21.542Z,102189.72
2023-05-08T09:10:48.892Z,102191.50
2023-05-08T09:13:16.700Z,102188.59
2023-05-08T09:15:44.782Z,102183.44
2023-05-08T09:18:11.278Z,102189.19
2023-05-08T09:20:40.712Z,102188.41
2023-05-08T09:23:07.859Z,102186.28
2023-05-08T09:25:48.578Z,102184.13
2023-05-08T09:28:25.936Z,102188.31
2023-05-08T09:30:58.175Z,102184.88
2023-05-08T09:33:26.731Z,102191.72
2023-05-08T09:35:54.297Z,102191.13
2023-05-08T09:38:38.535Z,102190.50
2023-05-08T09:41:08.805Z,102181.25
2023-05-08T09:43:35.909Z,102192.94
2023-05-08T09:46:24.320Z,102183.44
2023-05-08T09:48:53.956Z,102186.56
2023-05-08T09:51:21.543Z,102194.69
2023-05-08T09:53:54.410Z,102184.59
2023-05-08T09:56:39.040Z,102194.16
2023-05-08T09:59:22.814Z,102188.91
2023-05-08T10:01:49.359Z,102189.06
2023-05-08T10:04:15.991Z,102191.75
2023-05-08T10:06:42.644Z,102192.34
2023-05-08T10:09:14.393Z,102188.44
2023-05-08T10:11:42.416Z,102194.22
2023-05-08T10:14:09.152Z,102198.25
2023-05-08T10:16:41.750Z,102193.75
2023-05-08T10:19:16.845Z,102204.69
2023-05-08T10:21:47.769Z,102202.34
2023-05-08T10:24:26.879Z,102201.25
2023-05-08T10:27:17.035Z,102193.25
2023-05-08T10:29:54.315Z,102195.81
2023-05-08T10:32:23.124Z,102194.31
2023-05-08T10:34:56.446Z,102187.75
2023-05-08T10:37:25.248Z,102188.81
2023-05-08T10:39:53.657Z,102197.38
2023-05-08T10:42:20.495Z,102193.78
2023-05-08T10:44:47.066Z,102201.69
2023-05-08T10:47:19.597Z,102191.50
2023-05-08T10:50:04.318Z,102197.56
2023-05-08T10:52:49.212Z,102190.56
2023-05-08T10:55:17.549Z,102189.78
2023-05-08T10:58:07.024Z,102191.97
2023-05-08T11:00:52.005Z,102186.97
2023-05-08T11:03:43.335Z,102193.75
2023-05-08T11:06:10.497Z,102191.38
2023-05-08T11:08:51.764Z,102189.28
2023-05-08T11:11:33.838Z,102191.78
2023-05-08T11:14:09.331Z,102183.41
2023-05-08T11:16:54.080Z,102184.34
2023-05-08T11:19:22.654Z,102178.09
2023-05-08T11:22:11.060Z,102174.72
2023-05-08T11:24:39.055Z,102172.16
2023-05-08T11:27:05.729Z,102174.03
2023-05-08T11:29:32.827Z,102176.13
2023-05-08T11:31:59.648Z,102169.72
2023-05-08T11:34:48.680Z,102164.25
2023-05-08T11:37:21.180Z,102157.03
2023-05-08T11:39:48.636Z,102158.63
2023-05-08T11:42:27.156Z,102157.44
2023-05-08T11:45:08.020Z,102155.84
2023-05-08T11:47:41.426Z,102157.31
2023-05-08T11:50:09.455Z,102145.97
2023-05-08T11:52:38.529Z,102143.91
2023-05-08T11:55:09.919Z,102158.41
2023-05-08T11:57:36.440Z,102155.88
2023-05-08T12:00:11.164Z,102157.91
2023-05-08T12:02:42.781Z,102147.03
2023-05-08T12:05:11.328Z,102152.78
2023-05-08T12:07:47.728Z,102143.38
2023-05-08T12:10:15.326Z,102148.38
2023-05-08T12:12:43.369Z,102147.94
2023-05-08T12:15:15.208Z,102139.19
2023-05-08T12:17:42.634Z,102147.63
2023-05-08T12:20:19.082Z,102142.03
2023-05-08T12:22:53.132Z,102138.88
2023-05-08T12:25:20.470Z,102135.94
2023-05-08T12:27:47.399Z,102133.16
2023-05-08T12:30:14.926Z,102129.84
2023-05-08T12:32:43.653Z,102132.53
2023-05-08T12:35:11.689Z,102135.00
2023-05-08T12:37:38.723Z,102140.47
2023-05-08T12:40:06.649Z,102138.16
2023-05-08T12:42:43.273Z,102126.84
2023-05-08T12:45:19.817Z,102117.50
2023-05-08T12:47:47.862Z,102124.88
2023-05-08T12:50:15.842Z,102125.34
2023-05-08T12:52:43.003Z,102111.06
2023-05-08T12:55:24.814Z,102105.19
2023-05-08T12:58:00.501Z,102104.41
2023-05-08T13:00:38.881Z,102109.31
2023-05-08T13:03:06.410Z,102099.44
2023-05-08T13:05:35.285Z,102093.00
2023-05-08T13:08:06.444Z,102095.69
2023-05-08T13:10:59.678Z,102104.06
2023-05-08T13:13:28.103Z,102101.81
2023-05-08T13:15:56.185Z,102092.66
2023-05-08T13:18:27.485Z,102090.44
2023-05-08T13:20:54.695Z,102091.47
2023-05-08T13:23:21.164Z,102088.44
2023-05-08T13:25:47.777Z,102094.56
2023-05-08T13:28:14.348Z,102098.56
2023-05-08T13:30:40.880Z,102089.97
2023-05-08T13:33:07.836Z,102085.75
2023-05-08T13:35:34.589Z,102093.53
2023-05-08T13:38:01.460Z,102083.38
2023-05-08T13:40:28.207Z,102086.59
2023-05-08T13:42:54.721Z,102087.88
2023-05-08T13:45:21.397Z,102083.47
2023-05-08T13:47:49.197Z,102078.69
2023-05-08T13:50:19.490Z,102077.47
2023-05-08T13:52:46.048Z,102073.81
2023-05-08T13:55:14.076Z,102073.78
2023-05-08T13:57:41.054Z,102068.56
2023-05-08T14:00:08.959Z,102069.09
2023-05-08T14:02:37.220Z,102062.19
2023-05-08T14:05:05.125Z,102072.28
2023-05-08T14:07:31.594Z,102064.41
2023-05-08T14:09:58.070Z,102055.78
2023-05-08T14:12:24.544Z,102059.50
2023-05-08T14:14:50.948Z,102063.16
2023-05-08T14:17:17.444Z,102060.72
2023-05-08T14:19:44.112Z,102059.44
2023-05-08T14:22:10.576Z,102065.84
2023-05-08T14:24:37.003Z,102062.59
2023-05-08T14:27:05.983Z,102053.72
2023-05-08T14:29:33.422Z,102063.59
2023-05-08T14:32:00.065Z,102050.28
2023-05-08T14:34:26.932Z,102056.72
2023-05-08T14:36:53.540Z,102057.00
2023-05-08T14:39:20.187Z,102044.41
2023-05-08T14:41:59.719Z,102045.88
2023-05-08T14:44:33.222Z,102052.31
2023-05-08T14:46:59.677Z,102042.91
2023-05-08T14:49:36.589Z,102044.63
2023-05-08T14:52:04.710Z,102037.25
2023-05-08T14:54:31.799Z,102038.53
2023-05-08T14:56:58.525Z,102042.94
2023-05-08T14:59:25.082Z,102038.72
2023-05-08T15:01:51.677Z,102039.91
2023-05-08T15:04:18.292Z,102043.59
2023-05-08T15:06:44.761Z,102040.09
2023-05-08T15:09:11.334Z,102041.81
2023-05-08T15:11:37.842Z,102039.56
2023-05-08T15:14:05.284Z,102046.22
2023-05-08T15:16:32.225Z,102041.81
2023-05-08T15:18:58.815Z,102039.59
2023-05-08T15:21:28.640Z,102035.66
2023-05-08T15:23:55.664Z,102043.78
2023-05-08T15:26:22.833Z,102038.53
2023-05-08T15:28:49.516Z,102038.53
2023-05-08T15:31:16.278Z,102038.28
2023-05-08T15:33:44.842Z,102032.56
2023-05-08T15:36:13.030Z,102033.09
2023-05-08T15:38:40.900Z,102037.28
2023-05-08T15:41:07.423Z,102030.41
2023-05-08T15:43:33.892Z,102017.88
2023-05-08T15:46:00.439Z,102028.72
2023-05-08T15:48:27.136Z,102024.47
2023-05-08T15:50:53.738Z,102022.22
2023-05-08T15:53:20.265Z,102030.34
2023-05-08T15:55:46.676Z,102021.94
2023-05-08T15:58:13.122Z,102019.25
2023-05-08T16:00:44.748Z,102030.06
2023-05-08T16:03:12.288Z,102026.41
2023-05-08T16:05:39.426Z,102026.59
2023-05-08T16:08:06.226Z,102033.13
2023-05-08T16:10:32.751Z,102031.03
2023-05-08T16:12:59.348Z,102033.44
2023-05-08T16:15:25.916Z,102029.00
2023-05-08T16:17:52.447Z,102031.91
2023-05-08T16:20:19.047Z,102035.38
2023-05-08T16:22:45.736Z,102032.34
2023-05-08T16:25:12.603Z,102023.44
2023-05-08T16:27:39.189Z,102031.09
2023-05-08T16:30:06.446Z,102029.38
2023-05-08T16:32:32.982Z,102033.06
2023-05-08T16:34:59.448Z,102038.69
2023-05-08T16:37:25.941Z,102040.84
2023-05-08T16:39:52.382Z,102033.84
2023-05-08T16:42:19.200Z,102042.31
2023-05-08T16:44:45.738Z,102028.72
2023-05-08T16:47:12.474Z,102027.22
2023-05-08T16:49:40.442Z,102025.06
2023-05-08T16:52:07.188Z,102028.03
2023-05-08T16:54:33.969Z,102024.66
2023-05-08T16:57:00.532Z,102024.28
2023-05-08T16:59:26.991Z,102014.72
2023-05-08T17:01:54.572Z,102012.50
2023-05-08T17:04:21.041Z,102009.84
2023-05-08T17:06:47.489Z,102003.22
2023-05-08T17:09:13.956Z,101999.31
2023-05-08T17:11:40.450Z,102003.16
2023-05-08T17:14:06.957Z,102003.91
2023-05-08T17:16:33.453Z,102009.31
2023-05-08T17:19:00.548Z,102007.31
2023-05-08T17:21:27.076Z,102016.00
2023-05-08T17:23:53.569Z,102020.34
2023-05-08T17:26:22.296Z,102021.72
2023-05-08T17:28:48.784Z,102022.56
2023-05-08T17:31:15.902Z,102021.13
2023-05-08T17:33:42.508Z,102029.88
2023-05-08T17:36:09.210Z,102033.09
2023-05-08T17:38:38.212Z,102027.56
2023-05-08T17:41:04.772Z,102032.69
2023-05-08T17:43:31.509Z,102025.66
2023-05-08T17:45:58.106Z,102024.31
2023-05-08T17:48:24.637Z,102021.38
2023-05-08T17:50:51.149Z,102017.22
2023-05-08T17:53:17.661Z,102022.31
2023-05-08T17:55:44.127Z,102006.00
2023-05-08T17:58:10.572Z,102020.06
2023-05-08T18:00:37.712Z,102019.06
2023-05-08T18:03:04.855Z,102016.00
2023-05-08T18:05:31.518Z,102014.03
2023-05-08T18:07:57.995Z,102021.69
2023-05-08T18:10:24.487Z,102028.47
2023-05-08T18:12:50.997Z,102037.69
2023-05-08T18:15:17.550Z,102034.66
2023-05-08T18:17:44.186Z,102030.47
2023-05-08T18:20:11.258Z,102032.16
2023-05-08T18:22:37.900Z,102027.13
2023-05-08T18:25:04.635Z,102026.47
2023-05-08T18:27:34.126Z,102019.22
2023-05-08T18:30:00.793Z,102026.13
2023-05-08T18:32:27.812Z,102027.50
2023-05-08T18:34:54.385Z,102034.38
2023-05-08T18:37:21.001Z,102025.09
2023-05-08T18:39:47.508Z,102026.78
2023-05-08T18:42:13.947Z,102028.16
2023-05-08T18:44:41.001Z,102017.44
2023-05-08T18:47:07.488Z,102028.13
2023-05-08T18:49:33.946Z,102031.19
2023-05-08T18:52:00.396Z,102024.22
2023-05-08T18:54:27.059Z,102011.09
2023-05-08T18:56:54.254Z,102002.16
2023-05-08T18:59:21.469Z,102004.56
2023-05-08T19:01:48.376Z,102006.56
2023-05-08T19:04:14.991Z,102001.34
2023-05-08T19:06:41.657Z,101998.13
2023-05-08T19:09:08.898Z,102001.44
2023-05-08T19:11:35.815Z,102006.91
2023-05-08T19:14:02.330Z,102002.41
2023-05-08T19:16:29.127Z,102006.31
2023-05-08T19:18:55.734Z,102002.31
2023-05-08T19:21:22.196Z,102009.22
2023-05-08T19:23:48.689Z,102001.75
2023-05-08T19:26:15.534Z,102010.00
2023-05-08T19:28:41.962Z,102006.28
2023-05-08T19:31:08.422Z,102004.69
2023-05-08T19:33:34.866Z,102006.78
2023-05-08T19:36:01.385Z,102007.41
2023-05-08T19:38:27.844Z,102013.41
2023-05-08T19:40:57.590Z,102004.75
2023-05-08T19:43:25.885Z,102002.69
2023-05-08T19:45:52.446Z,102007.03
2023-05-08T19:48:20.122Z,102012.56
2023-05-08T19:50:46.781Z,102018.75
2023-05-08T19:53:13.714Z,102012.50
2023-05-08T19:55:40.437Z,102018.47
2023-05-08T19:58:06.874Z,102022.25
2023-05-08T20:00:33.357Z,102015.53
2023-05-08T20:02:59.840Z,102025.25
2023-05-08T20:05:26.462Z,102024.81
2023-05-08T20:07:52.905Z,102025.28
2023-05-08T20:10:19.385Z,102023.94
2023-05-08T20:12:45.897Z,102013.78
2023-05-08T20:15:12.537Z,102016.31
2023-05-08T20:17:39.293Z,102025.72
2023-05-08T20:20:06.591Z,102026.63
2023-05-08T20:22:33.140Z,102030.81
2023-05-08T20:25:01.127Z,102033.66
2023-05-08T20:27:29.236Z,102043.94
2023-05-08T20:29:55.976Z,102029.47
2023-05-08T20:32:22.764Z,102027.38
2023-05-08T20:34:49.305Z,102037.22
2023-05-08T20:37:16.027Z,102045.41
2023-05-08T20:39:43.226Z,102045.41
2023-05-08T20:42:09.695Z,102049.44
2023-05-08T20:44:36.206Z,102045.41
2023-05-08T20:47:02.846Z,102043.91
2023-05-08T20:49:29.342Z,102041.38
2023-05-08T20:51:55.743Z,102041.81
2023-05-08T20:54:22.297Z,102045.41
2023-05-08T20:56:48.829Z,102031.81
2023-05-08T20:59:16.673Z,102037.31
2023-05-08T21:01:43.309Z,102030.16
2023-05-08T21:04:10.127Z,102021.78
2023-05-08T21:06:36.585Z,102023.72
2023-05-08T21:09:06.630Z,102027.16
2023-05-08T21:11:33.557Z,102022.53
2023-05-08T21:14:00.137Z,102004.94
2023-05-08T21:16:27.110Z,102003.00
2023-05-08T21:18:55.414Z,102000.31
2023-05-08T21:21:23.198Z,101992.69
2023-05-08T21:23:49.655Z,101993.91
2023-05-08T21:26:16.160Z,101995.09
2023-05-08T21:28:42.699Z,101998.22
2023-05-08T21:31:09.235Z,101995.22
2023-05-08T21:33:35.929Z,101995.81
2023-05-08T21:36:02.496Z,102004.31
2023-05-08T21:38:29.034Z,101990.31
2023-05-08T21:40:55.757Z,101995.38
2023-05-08T21:43:24.274Z,101987.41
2023-05-08T21:45:50.787Z,101985.63
2023-05-08T21:48:17.293Z,101982.94
2023-05-08T21:50:43.794Z,101981.75
2023-05-08T21:53:10.275Z,101974.16
2023-05-08T21:55:36.715Z,101972.91
2023-05-08T21:58:03.146Z,101965.44
2023-05-08T22:00:29.697Z,101969.00
2023-05-08T22:02:56.333Z,101969.91
2023-05-08T22:05:23.548Z,101968.41
2023-05-08T22:07:50.002Z,101965.72
2023-05-08T22:10:16.721Z,101966.78
2023-05-08T22:12:43.251Z,101963.03
2023-05-08T22:15:25.510Z,101960.03
2023-05-08T22:17:56.057Z,101948.56
2023-05-08T22:20:22.751Z,101947.81
2023-05-08T22:22:49.327Z,101937.97
2023-05-08T22:25:16.155Z,101935.28
2023-05-08T22:27:42.680Z,101936.03
2023-05-08T22:30:09.304Z,101923.81
2023-05-08T22:32:36.423Z,101921.56
2023-05-08T22:35:02.909Z,101921.00
2023-05-08T22:37:30.337Z,101921.88
2023-05-08T22:39:56.838Z,101914.28
2023-05-08T22:42:24.443Z,101914.72
2023-05-08T22:44:51.243Z,101909.34
2023-05-08T22:47:17.783Z,101905.63
2023-05-08T22:49:44.193Z,101905.00
2023-05-08T22:52:10.666Z,101892.47
2023-05-08T22:54:37.132Z,101884.44
2023-05-08T22:57:03.800Z,101884.56
2023-05-08T22:59:30.239Z,101874.72
2023-05-08T23:01:56.782Z,101880.22
2023-05-08T23:04:23.385Z,101877.97
2023-05-08T23:06:49.908Z,101875.75
2023-05-08T23:09:16.518Z,101872.75
2023-05-08T23:11:43.046Z,101879.44
2023-05-08T23:14:09.498Z,101871.38
2023-05-08T23:16:36.136Z,101857.41
2023-05-08T23:19:03.359Z,101865.56
2023-05-08T23:21:29.830Z,101855.00
2023-05-08T23:23:56.475Z,101855.88
2023-05-08T23:26:22.875Z,101856.31
2023-05-08T23:28:49.394Z,101852.88
2023-05-08T23:31:16.790Z,101852.56
2023-05-08T23:33:43.302Z,101848.84
2023-05-08T23:36:09.927Z,101837.81
2023-05-08T23:38:36.405Z,101836.31
2023-05-08T23:41:02.883Z,101833.34
2023-05-08T23:43:29.305Z,101820.81
2023-05-08T23:45:55.815Z,101821.69
2023-05-08T23:48:22.465Z,101813.78
2023-05-08T23:50:49.104Z,101815.72
2023-05-08T23:53:15.543Z,101815.84
2023-05-08T23:55:42.014Z,101804.78
2023-05-08T23:58:08.636Z,101813.16
